sensor_id;sensor_type;location;lat;lon;timestamp;temperature;humidity
75457;SHT31;64036;48.266;14.192;2022-11-15T00:00:26;6.23;80.40
75457;SHT31;64036;48.266;14.192;2022-11-15T00:02:52;6.19;80.48
75457;SHT31;64036;48.266;14.192;2022-11-15T00:05:18;6.16;80.81
75457;SHT31;64036;48.266;14.192;2022-11-15T00:07:44;6.16;81.12
75457;SHT31;64036;48.266;14.192;2022-11-15T00:10:09;6.15;81.25
75457;SHT31;64036;48.266;14.192;2022-11-15T00:12:35;6.17;81.61
75457;SHT31;64036;48.266;14.192;2022-11-15T00:15:01;6.20;81.73
75457;SHT31;64036;48.266;14.192;2022-11-15T00:17:27;6.23;81.88
75457;SHT31;64036;48.266;14.192;2022-11-15T00:19:53;6.23;81.90
75457;SHT31;64036;48.266;14.192;2022-11-15T00:22:18;6.25;81.98
75457;SHT31;64036;48.266;14.192;2022-11-15T00:24:44;6.29;81.90
75457;SHT31;64036;48.266;14.192;2022-11-15T00:27:10;6.34;81.83
75457;SHT31;64036;48.266;14.192;2022-11-15T00:29:36;6.34;81.70
75457;SHT31;64036;48.266;14.192;2022-11-15T00:32:04;6.34;81.79
75457;SHT31;64036;48.266;14.192;2022-11-15T00:34:30;6.32;81.70
75457;SHT31;64036;48.266;14.192;2022-11-15T00:36:56;6.29;81.55
75457;SHT31;64036;48.266;14.192;2022-11-15T00:39:21;6.23;81.51
75457;SHT31;64036;48.266;14.192;2022-11-15T00:41:47;6.21;81.55
75457;SHT31;64036;48.266;14.192;2022-11-15T00:44:12;6.16;81.47
75457;SHT31;64036;48.266;14.192;2022-11-15T00:46:38;6.16;81.56
75457;SHT31;64036;48.266;14.192;2022-11-15T00:49:03;6.14;81.35
75457;SHT31;64036;48.266;14.192;2022-11-15T00:51:29;6.15;81.33
75457;SHT31;64036;48.266;14.192;2022-11-15T00:53:55;6.13;81.38
75457;SHT31;64036;48.266;14.192;2022-11-15T00:56:20;6.14;81.28
75457;SHT31;64036;48.266;14.192;2022-11-15T00:58:46;6.13;81.11
75457;SHT31;64036;48.266;14.192;2022-11-15T01:01:13;6.07;80.92
75457;SHT31;64036;48.266;14.192;2022-11-15T01:03:39;6.03;81.23
75457;SHT31;64036;48.266;14.192;2022-11-15T01:06:09;6.00;81.31
75457;SHT31;64036;48.266;14.192;2022-11-15T01:08:35;5.97;81.36
75457;SHT31;64036;48.266;14.192;2022-11-15T01:11:02;5.94;81.36
75457;SHT31;64036;48.266;14.192;2022-11-15T01:13:33;5.89;81.26
75457;SHT31;64036;48.266;14.192;2022-11-15T01:16:11;5.83;81.25
75457;SHT31;64036;48.266;14.192;2022-11-15T01:18:39;5.77;81.45
75457;SHT31;64036;48.266;14.192;2022-11-15T01:21:06;5.72;81.59
75457;SHT31;64036;48.266;14.192;2022-11-15T01:23:34;5.69;81.98
75457;SHT31;64036;48.266;14.192;2022-11-15T01:26:01;5.72;82.09
75457;SHT31;64036;48.266;14.192;2022-11-15T01:28:30;5.75;82.06
75457;SHT31;64036;48.266;14.192;2022-11-15T01:30:58;5.77;82.00
75457;SHT31;64036;48.266;14.192;2022-11-15T01:33:26;5.79;81.92
75457;SHT31;64036;48.266;14.192;2022-11-15T01:35:53;5.78;81.94
75457;SHT31;64036;48.266;14.192;2022-11-15T01:38:18;5.80;82.09
75457;SHT31;64036;48.266;14.192;2022-11-15T01:40:44;5.80;82.19
75457;SHT31;64036;48.266;14.192;2022-11-15T01:43:23;5.81;82.21
75457;SHT31;64036;48.266;14.192;2022-11-15T01:45:56;5.81;82.30
75457;SHT31;64036;48.266;14.192;2022-11-15T01:48:31;5.81;82.31
75457;SHT31;64036;48.266;14.192;2022-11-15T01:50:59;5.80;82.23
75457;SHT31;64036;48.266;14.192;2022-11-15T01:53:28;5.79;82.20
75457;SHT31;64036;48.266;14.192;2022-11-15T01:55:56;5.78;82.22
75457;SHT31;64036;48.266;14.192;2022-11-15T01:58:23;5.77;82.17
75457;SHT31;64036;48.266;14.192;2022-11-15T02:00:49;5.75;82.09
75457;SHT31;64036;48.266;14.192;2022-11-15T02:03:15;5.72;82.00
75457;SHT31;64036;48.266;14.192;2022-11-15T02:05:41;5.68;82.11
75457;SHT31;64036;48.266;14.192;2022-11-15T02:08:09;5.65;82.20
75457;SHT31;64036;48.266;14.192;2022-11-15T02:10:47;5.64;82.25
75457;SHT31;64036;48.266;14.192;2022-11-15T02:13:14;5.64;82.30
75457;SHT31;64036;48.266;14.192;2022-11-15T02:16:25;5.64;82.28
75457;SHT31;64036;48.266;14.192;2022-11-15T02:34:05;5.66;83.15
75457;SHT31;64036;48.266;14.192;2022-11-15T02:39:36;5.57;83.16
75457;SHT31;64036;48.266;14.192;2022-11-15T02:42:21;5.48;82.96
75457;SHT31;64036;48.266;14.192;2022-11-15T02:45:11;5.39;82.86
75457;SHT31;64036;48.266;14.192;2022-11-15T02:47:43;5.35;82.81
75457;SHT31;64036;48.266;14.192;2022-11-15T02:50:16;5.30;82.70
75457;SHT31;64036;48.266;14.192;2022-11-15T02:52:44;5.24;82.60
75457;SHT31;64036;48.266;14.192;2022-11-15T02:55:28;5.19;82.63
75457;SHT31;64036;48.266;14.192;2022-11-15T03:01:01;5.18;82.74
75457;SHT31;64036;48.266;14.192;2022-11-15T03:06:24;5.13;82.61
75457;SHT31;64036;48.266;14.192;2022-11-15T03:12:03;5.04;82.64
75457;SHT31;64036;48.266;14.192;2022-11-15T03:14:34;5.03;82.69
75457;SHT31;64036;48.266;14.192;2022-11-15T03:17:30;5.02;82.72
75457;SHT31;64036;48.266;14.192;2022-11-15T03:20:03;5.04;82.81
75457;SHT31;64036;48.266;14.192;2022-11-15T03:22:33;5.07;82.89
75457;SHT31;64036;48.266;14.192;2022-11-15T03:25:04;5.10;82.92
75457;SHT31;64036;48.266;14.192;2022-11-15T03:27:38;5.12;82.90
75457;SHT31;64036;48.266;14.192;2022-11-15T03:30:08;5.14;82.99
75457;SHT31;64036;48.266;14.192;2022-11-15T03:32:40;5.18;83.11
75457;SHT31;64036;48.266;14.192;2022-11-15T03:35:21;5.21;83.34
75457;SHT31;64036;48.266;14.192;2022-11-15T03:40:40;5.26;83.77
75457;SHT31;64036;48.266;14.192;2022-11-15T03:47:03;5.43;84.11
75457;SHT31;64036;48.266;14.192;2022-11-15T03:49:46;5.50;84.10
75457;SHT31;64036;48.266;14.192;2022-11-15T03:52:19;5.56;84.04
75457;SHT31;64036;48.266;14.192;2022-11-15T03:54:50;5.60;84.07
75457;SHT31;64036;48.266;14.192;2022-11-15T03:57:18;5.67;84.04
75457;SHT31;64036;48.266;14.192;2022-11-15T03:59:44;5.72;84.00
75457;SHT31;64036;48.266;14.192;2022-11-15T04:02:10;5.76;84.01
75457;SHT31;64036;48.266;14.192;2022-11-15T04:04:37;5.81;83.99
75457;SHT31;64036;48.266;14.192;2022-11-15T04:07:02;5.86;83.98
75457;SHT31;64036;48.266;14.192;2022-11-15T04:09:28;5.89;83.90
75457;SHT31;64036;48.266;14.192;2022-11-15T04:11:54;5.94;83.87
75457;SHT31;64036;48.266;14.192;2022-11-15T04:14:19;5.97;83.81
75457;SHT31;64036;48.266;14.192;2022-11-15T04:16:45;6.02;83.80
75457;SHT31;64036;48.266;14.192;2022-11-15T04:19:11;5.99;83.99
75457;SHT31;64036;48.266;14.192;2022-11-15T04:21:55;6.00;84.10
75457;SHT31;64036;48.266;14.192;2022-11-15T04:24:39;6.01;84.00
75457;SHT31;64036;48.266;14.192;2022-11-15T04:27:05;6.01;83.99
75457;SHT31;64036;48.266;14.192;2022-11-15T04:29:30;6.00;83.98
75457;SHT31;64036;48.266;14.192;2022-11-15T04:32:03;5.99;83.99
75457;SHT31;64036;48.266;14.192;2022-11-15T04:34:31;6.02;83.99
75457;SHT31;64036;48.266;14.192;2022-11-15T04:36:57;6.04;83.91
75457;SHT31;64036;48.266;14.192;2022-11-15T04:39:41;6.05;83.86
75457;SHT31;64036;48.266;14.192;2022-11-15T04:42:08;6.04;83.80
75457;SHT31;64036;48.266;14.192;2022-11-15T04:44:35;6.04;83.69
75457;SHT31;64036;48.266;14.192;2022-11-15T04:47:01;6.03;83.61
75457;SHT31;64036;48.266;14.192;2022-11-15T04:49:26;6.03;83.50
75457;SHT31;64036;48.266;14.192;2022-11-15T04:51:52;6.02;83.37
75457;SHT31;64036;48.266;14.192;2022-11-15T04:54:18;6.01;83.26
75457;SHT31;64036;48.266;14.192;2022-11-15T04:56:43;5.99;83.16
75457;SHT31;64036;48.266;14.192;2022-11-15T04:59:09;5.95;83.10
75457;SHT31;64036;48.266;14.192;2022-11-15T05:01:35;5.93;83.07
75457;SHT31;64036;48.266;14.192;2022-11-15T05:04:00;5.87;82.93
75457;SHT31;64036;48.266;14.192;2022-11-15T05:06:45;5.82;83.10
75457;SHT31;64036;48.266;14.192;2022-11-15T05:09:15;5.76;83.10
75457;SHT31;64036;48.266;14.192;2022-11-15T05:11:42;5.74;83.17
75457;SHT31;64036;48.266;14.192;2022-11-15T05:14:08;5.72;83.05
75457;SHT31;64036;48.266;14.192;2022-11-15T05:16:35;5.66;82.92
75457;SHT31;64036;48.266;14.192;2022-11-15T05:19:02;5.61;83.07
75457;SHT31;64036;48.266;14.192;2022-11-15T05:21:27;5.56;83.28
75457;SHT31;64036;48.266;14.192;2022-11-15T05:23:53;5.56;83.56
75457;SHT31;64036;48.266;14.192;2022-11-15T05:26:19;5.59;83.92
75457;SHT31;64036;48.266;14.192;2022-11-15T05:28:44;5.55;84.36
75457;SHT31;64036;48.266;14.192;2022-11-15T05:31:11;5.50;84.71
75457;SHT31;64036;48.266;14.192;2022-11-15T05:33:41;5.51;84.87
75457;SHT31;64036;48.266;14.192;2022-11-15T05:39:06;5.65;84.62
75457;SHT31;64036;48.266;14.192;2022-11-15T05:44:21;5.63;84.30
75457;SHT31;64036;48.266;14.192;2022-11-15T05:46:48;5.61;84.20
75457;SHT31;64036;48.266;14.192;2022-11-15T05:49:16;5.59;84.14
75457;SHT31;64036;48.266;14.192;2022-11-15T05:51:45;5.56;84.09
75457;SHT31;64036;48.266;14.192;2022-11-15T05:54:13;5.54;83.96
75457;SHT31;64036;48.266;14.192;2022-11-15T05:56:40;5.48;83.90
75457;SHT31;64036;48.266;14.192;2022-11-15T05:59:05;5.44;83.93
75457;SHT31;64036;48.266;14.192;2022-11-15T06:01:33;5.38;84.15
75457;SHT31;64036;48.266;14.192;2022-11-15T06:03:59;5.37;84.27
75457;SHT31;64036;48.266;14.192;2022-11-15T06:06:24;5.37;84.30
75457;SHT31;64036;48.266;14.192;2022-11-15T06:08:52;5.39;84.38
75457;SHT31;64036;48.266;14.192;2022-11-15T06:11:18;5.42;84.32
75457;SHT31;64036;48.266;14.192;2022-11-15T06:13:43;5.41;84.17
75457;SHT31;64036;48.266;14.192;2022-11-15T06:16:09;5.41;84.12
75457;SHT31;64036;48.266;14.192;2022-11-15T06:18:34;5.38;84.16
75457;SHT31;64036;48.266;14.192;2022-11-15T06:21:01;5.37;84.05
75457;SHT31;64036;48.266;14.192;2022-11-15T06:23:27;5.40;83.96
75457;SHT31;64036;48.266;14.192;2022-11-15T06:25:57;5.45;83.84
75457;SHT31;64036;48.266;14.192;2022-11-15T06:28:24;5.52;83.71
75457;SHT31;64036;48.266;14.192;2022-11-15T06:30:52;5.59;83.48
75457;SHT31;64036;48.266;14.192;2022-11-15T06:33:18;5.57;83.03
75457;SHT31;64036;48.266;14.192;2022-11-15T06:35:43;5.52;82.89
75457;SHT31;64036;48.266;14.192;2022-11-15T06:38:09;5.50;82.89
75457;SHT31;64036;48.266;14.192;2022-11-15T06:40:36;5.50;82.78
75457;SHT31;64036;48.266;14.192;2022-11-15T06:43:05;5.48;82.84
75457;SHT31;64036;48.266;14.192;2022-11-15T06:45:31;5.50;82.86
75457;SHT31;64036;48.266;14.192;2022-11-15T06:47:57;5.53;82.89
75457;SHT31;64036;48.266;14.192;2022-11-15T06:50:24;5.54;82.89
75457;SHT31;64036;48.266;14.192;2022-11-15T06:52:50;5.56;83.00
75457;SHT31;64036;48.266;14.192;2022-11-15T06:55:15;5.64;83.20
75457;SHT31;64036;48.266;14.192;2022-11-15T06:57:48;5.72;83.20
75457;SHT31;64036;48.266;14.192;2022-11-15T07:00:18;5.79;83.06
75457;SHT31;64036;48.266;14.192;2022-11-15T07:02:46;5.81;82.84
75457;SHT31;64036;48.266;14.192;2022-11-15T07:05:12;5.85;82.92
75457;SHT31;64036;48.266;14.192;2022-11-15T07:07:39;5.89;83.26
75457;SHT31;64036;48.266;14.192;2022-11-15T07:10:05;5.89;83.48
75457;SHT31;64036;48.266;14.192;2022-11-15T07:12:32;5.89;83.60
75457;SHT31;64036;48.266;14.192;2022-11-15T07:14:57;5.88;83.83
75457;SHT31;64036;48.266;14.192;2022-11-15T07:17:23;5.84;84.07
75457;SHT31;64036;48.266;14.192;2022-11-15T07:19:48;5.79;84.27
75457;SHT31;64036;48.266;14.192;2022-11-15T07:22:14;5.77;84.41
75457;SHT31;64036;48.266;14.192;2022-11-15T07:24:40;5.78;84.52
75457;SHT31;64036;48.266;14.192;2022-11-15T07:27:05;5.77;84.61
75457;SHT31;64036;48.266;14.192;2022-11-15T07:29:31;5.78;84.75
75457;SHT31;64036;48.266;14.192;2022-11-15T07:31:56;5.78;84.85
75457;SHT31;64036;48.266;14.192;2022-11-15T07:34:22;5.77;85.00
75457;SHT31;64036;48.266;14.192;2022-11-15T07:36:48;5.77;85.11
75457;SHT31;64036;48.266;14.192;2022-11-15T07:39:14;5.76;85.20
75457;SHT31;64036;48.266;14.192;2022-11-15T07:41:40;5.81;85.28
75457;SHT31;64036;48.266;14.192;2022-11-15T07:44:05;5.79;85.31
75457;SHT31;64036;48.266;14.192;2022-11-15T07:46:31;5.74;85.51
75457;SHT31;64036;48.266;14.192;2022-11-15T07:48:56;5.70;85.69
75457;SHT31;64036;48.266;14.192;2022-11-15T07:51:22;5.69;85.92
75457;SHT31;64036;48.266;14.192;2022-11-15T07:53:48;5.70;86.03
75457;SHT31;64036;48.266;14.192;2022-11-15T07:56:14;5.72;86.18
75457;SHT31;64036;48.266;14.192;2022-11-15T07:58:39;5.69;86.43
75457;SHT31;64036;48.266;14.192;2022-11-15T08:01:06;5.67;86.66
75457;SHT31;64036;48.266;14.192;2022-11-15T08:03:33;5.71;86.66
75457;SHT31;64036;48.266;14.192;2022-11-15T08:05:59;5.76;86.70
75457;SHT31;64036;48.266;14.192;2022-11-15T08:08:25;5.78;86.86
75457;SHT31;64036;48.266;14.192;2022-11-15T08:10:51;5.81;86.87
75457;SHT31;64036;48.266;14.192;2022-11-15T08:13:17;5.87;86.76
75457;SHT31;64036;48.266;14.192;2022-11-15T08:15:42;5.91;86.74
75457;SHT31;64036;48.266;14.192;2022-11-15T08:18:12;5.95;86.80
75457;SHT31;64036;48.266;14.192;2022-11-15T08:20:41;5.95;86.95
75457;SHT31;64036;48.266;14.192;2022-11-15T08:23:08;5.95;87.03
75457;SHT31;64036;48.266;14.192;2022-11-15T08:25:36;6.00;87.15
75457;SHT31;64036;48.266;14.192;2022-11-15T08:28:04;6.01;87.13
75457;SHT31;64036;48.266;14.192;2022-11-15T08:30:38;6.06;87.25
75457;SHT31;64036;48.266;14.192;2022-11-15T08:33:09;6.11;87.08
75457;SHT31;64036;48.266;14.192;2022-11-15T08:35:37;6.17;87.05
75457;SHT31;64036;48.266;14.192;2022-11-15T08:38:04;6.22;86.97
75457;SHT31;64036;48.266;14.192;2022-11-15T08:40:29;6.26;86.86
75457;SHT31;64036;48.266;14.192;2022-11-15T08:42:55;6.27;86.84
75457;SHT31;64036;48.266;14.192;2022-11-15T08:45:20;6.28;87.01
75457;SHT31;64036;48.266;14.192;2022-11-15T08:47:46;6.28;87.10
75457;SHT31;64036;48.266;14.192;2022-11-15T08:50:12;6.29;87.01
75457;SHT31;64036;48.266;14.192;2022-11-15T08:52:37;6.35;87.03
75457;SHT31;64036;48.266;14.192;2022-11-15T08:55:03;6.30;87.16
75457;SHT31;64036;48.266;14.192;2022-11-15T08:57:29;6.27;87.26
75457;SHT31;64036;48.266;14.192;2022-11-15T08:59:56;6.26;87.25
75457;SHT31;64036;48.266;14.192;2022-11-15T09:02:21;6.28;87.22
75457;SHT31;64036;48.266;14.192;2022-11-15T09:04:47;6.29;87.31
75457;SHT31;64036;48.266;14.192;2022-11-15T09:07:13;6.31;87.39
75457;SHT31;64036;48.266;14.192;2022-11-15T09:09:39;6.31;87.45
75457;SHT31;64036;48.266;14.192;2022-11-15T09:12:05;6.28;87.50
75457;SHT31;64036;48.266;14.192;2022-11-15T09:14:32;6.28;87.62
75457;SHT31;64036;48.266;14.192;2022-11-15T09:16:57;6.23;87.86
75457;SHT31;64036;48.266;14.192;2022-11-15T09:19:24;6.22;88.19
75457;SHT31;64036;48.266;14.192;2022-11-15T09:21:49;6.26;88.15
75457;SHT31;64036;48.266;14.192;2022-11-15T09:24:15;6.29;88.26
75457;SHT31;64036;48.266;14.192;2022-11-15T09:26:42;6.35;88.20
75457;SHT31;64036;48.266;14.192;2022-11-15T09:29:08;6.39;88.10
75457;SHT31;64036;48.266;14.192;2022-11-15T09:31:34;6.41;88.00
75457;SHT31;64036;48.266;14.192;2022-11-15T09:33:59;6.41;87.87
75457;SHT31;64036;48.266;14.192;2022-11-15T09:36:25;6.41;87.84
75457;SHT31;64036;48.266;14.192;2022-11-15T09:38:50;6.45;87.77
75457;SHT31;64036;48.266;14.192;2022-11-15T09:41:25;6.52;87.74
75457;SHT31;64036;48.266;14.192;2022-11-15T09:50:07;6.74;87.28
75457;SHT31;64036;48.266;14.192;2022-11-15T09:52:36;6.77;87.02
75457;SHT31;64036;48.266;14.192;2022-11-15T09:55:07;6.81;86.92
75457;SHT31;64036;48.266;14.192;2022-11-15T09:57:39;6.83;86.80
75457;SHT31;64036;48.266;14.192;2022-11-15T10:00:21;6.85;86.77
75457;SHT31;64036;48.266;14.192;2022-11-15T10:05:48;6.88;86.56
75457;SHT31;64036;48.266;14.192;2022-11-15T10:11:25;6.97;86.48
75457;SHT31;64036;48.266;14.192;2022-11-15T10:13:55;6.92;86.34
75457;SHT31;64036;48.266;14.192;2022-11-15T10:22:16;6.88;86.58
75457;SHT31;64036;48.266;14.192;2022-11-15T10:24:47;6.83;86.80
75457;SHT31;64036;48.266;14.192;2022-11-15T10:27:15;6.84;86.98
75457;SHT31;64036;48.266;14.192;2022-11-15T10:29:44;6.87;86.92
75457;SHT31;64036;48.266;14.192;2022-11-15T10:32:13;6.91;86.65
75457;SHT31;64036;48.266;14.192;2022-11-15T10:34:42;6.94;86.56
75457;SHT31;64036;48.266;14.192;2022-11-15T10:37:08;6.96;86.55
75457;SHT31;64036;48.266;14.192;2022-11-15T10:39:34;6.98;86.40
75457;SHT31;64036;48.266;14.192;2022-11-15T10:44:53;6.99;86.68
75457;SHT31;64036;48.266;14.192;2022-11-15T10:47:24;7.00;86.66
75457;SHT31;64036;48.266;14.192;2022-11-15T10:52:57;6.93;86.91
75457;SHT31;64036;48.266;14.192;2022-11-15T10:55:28;6.90;86.96
75457;SHT31;64036;48.266;14.192;2022-11-15T10:58:01;6.92;87.06
75457;SHT31;64036;48.266;14.192;2022-11-15T11:00:35;6.94;86.99
75457;SHT31;64036;48.266;14.192;2022-11-15T11:03:05;6.96;87.07
75457;SHT31;64036;48.266;14.192;2022-11-15T11:06:18;7.01;86.87
75457;SHT31;64036;48.266;14.192;2022-11-15T11:08:55;7.03;86.73
75457;SHT31;64036;48.266;14.192;2022-11-15T11:11:25;6.99;86.74
75457;SHT31;64036;48.266;14.192;2022-11-15T11:14:12;7.00;86.86
75457;SHT31;64036;48.266;14.192;2022-11-15T11:20:38;7.10;86.77
75457;SHT31;64036;48.266;14.192;2022-11-15T11:40:24;7.03;87.03
75457;SHT31;64036;48.266;14.192;2022-11-15T11:43:16;6.98;87.14
75457;SHT31;64036;48.266;14.192;2022-11-15T11:49:15;6.90;87.30
75457;SHT31;64036;48.266;14.192;2022-11-15T11:54:44;6.88;87.35
75457;SHT31;64036;48.266;14.192;2022-11-15T12:00:55;6.81;87.71
75457;SHT31;64036;48.266;14.192;2022-11-15T12:03:34;6.82;87.73
75457;SHT31;64036;48.266;14.192;2022-11-15T12:06:16;6.80;87.65
75457;SHT31;64036;48.266;14.192;2022-11-15T12:08:53;6.77;87.73
75457;SHT31;64036;48.266;14.192;2022-11-15T12:11:26;6.69;88.01
75457;SHT31;64036;48.266;14.192;2022-11-15T12:14:01;6.71;88.19
75457;SHT31;64036;48.266;14.192;2022-11-15T12:16:39;6.77;88.00
75457;SHT31;64036;48.266;14.192;2022-11-15T12:19:08;6.79;87.76
75457;SHT31;64036;48.266;14.192;2022-11-15T12:24:14;6.84;87.51
75457;SHT31;64036;48.266;14.192;2022-11-15T12:26:52;6.84;87.46
75457;SHT31;64036;48.266;14.192;2022-11-15T12:29:44;6.87;87.40
75457;SHT31;64036;48.266;14.192;2022-11-15T12:32:33;6.91;87.25
75457;SHT31;64036;48.266;14.192;2022-11-15T12:35:03;6.90;87.32
75457;SHT31;64036;48.266;14.192;2022-11-15T12:37:32;6.93;87.23
75457;SHT31;64036;48.266;14.192;2022-11-15T12:42:35;7.02;87.12
75457;SHT31;64036;48.266;14.192;2022-11-15T12:45:23;7.09;87.01
75457;SHT31;64036;48.266;14.192;2022-11-15T12:47:51;7.19;86.47
75457;SHT31;64036;48.266;14.192;2022-11-15T12:50:18;7.20;86.22
75457;SHT31;64036;48.266;14.192;2022-11-15T13:07:10;7.30;86.01
75457;SHT31;64036;48.266;14.192;2022-11-15T13:09:59;7.36;85.79
75457;SHT31;64036;48.266;14.192;2022-11-15T13:15:40;7.40;85.74
75457;SHT31;64036;48.266;14.192;2022-11-15T13:22:47;7.34;85.50
75457;SHT31;64036;48.266;14.192;2022-11-15T13:30:41;7.40;85.60
75457;SHT31;64036;48.266;14.192;2022-11-15T13:35:57;7.38;85.34
75457;SHT31;64036;48.266;14.192;2022-11-15T13:38:28;7.34;85.47
75457;SHT31;64036;48.266;14.192;2022-11-15T13:40:58;7.33;85.67
75457;SHT31;64036;48.266;14.192;2022-11-15T13:43:35;7.34;85.78
75457;SHT31;64036;48.266;14.192;2022-11-15T13:46:34;7.37;85.74
75457;SHT31;64036;48.266;14.192;2022-11-15T13:56:37;7.38;85.71
75457;SHT31;64036;48.266;14.192;2022-11-15T13:59:35;7.42;85.63
75457;SHT31;64036;48.266;14.192;2022-11-15T14:02:17;7.43;85.51
75457;SHT31;64036;48.266;14.192;2022-11-15T14:04:59;7.39;85.57
75457;SHT31;64036;48.266;14.192;2022-11-15T14:07:31;7.34;85.64
75457;SHT31;64036;48.266;14.192;2022-11-15T14:09:57;7.38;85.68
75457;SHT31;64036;48.266;14.192;2022-11-15T14:12:30;7.38;85.57
75457;SHT31;64036;48.266;14.192;2022-11-15T14:15:00;7.42;85.59
75457;SHT31;64036;48.266;14.192;2022-11-15T14:18:03;7.46;85.46
75457;SHT31;64036;48.266;14.192;2022-11-15T14:20:31;7.49;85.32
75457;SHT31;64036;48.266;14.192;2022-11-15T14:25:59;7.53;85.14
75457;SHT31;64036;48.266;14.192;2022-11-15T14:30:51;7.48;85.07
75457;SHT31;64036;48.266;14.192;2022-11-15T14:38:37;7.43;85.11
75457;SHT31;64036;48.266;14.192;2022-11-15T14:41:03;7.44;85.20
75457;SHT31;64036;48.266;14.192;2022-11-15T14:43:29;7.45;85.26
75457;SHT31;64036;48.266;14.192;2022-11-15T14:45:54;7.46;85.30
75457;SHT31;64036;48.266;14.192;2022-11-15T14:48:20;7.48;85.30
75457;SHT31;64036;48.266;14.192;2022-11-15T14:50:47;7.47;85.26
75457;SHT31;64036;48.266;14.192;2022-11-15T14:53:16;7.48;85.28
75457;SHT31;64036;48.266;14.192;2022-11-15T14:55:43;7.49;85.20
75457;SHT31;64036;48.266;14.192;2022-11-15T14:58:09;7.49;85.16
75457;SHT31;64036;48.266;14.192;2022-11-15T15:00:36;7.49;85.08
75457;SHT31;64036;48.266;14.192;2022-11-15T15:03:04;7.44;85.10
75457;SHT31;64036;48.266;14.192;2022-11-15T15:07:56;7.40;85.20
75457;SHT31;64036;48.266;14.192;2022-11-15T15:10:22;7.34;85.44
75457;SHT31;64036;48.266;14.192;2022-11-15T15:12:48;7.24;85.91
75457;SHT31;64036;48.266;14.192;2022-11-15T15:15:19;7.21;86.10
75457;SHT31;64036;48.266;14.192;2022-11-15T15:17:49;7.17;86.26
75457;SHT31;64036;48.266;14.192;2022-11-15T15:20:15;7.16;86.30
75457;SHT31;64036;48.266;14.192;2022-11-15T15:22:41;7.16;86.21
75457;SHT31;64036;48.266;14.192;2022-11-15T15:25:40;7.17;86.25
75457;SHT31;64036;48.266;14.192;2022-11-15T15:28:00;7.16;86.27
75457;SHT31;64036;48.266;14.192;2022-11-15T15:30:27;7.18;86.20
75457;SHT31;64036;48.266;14.192;2022-11-15T15:32:55;7.20;86.23
75457;SHT31;64036;48.266;14.192;2022-11-15T15:35:23;7.20;86.23
75457;SHT31;64036;48.266;14.192;2022-11-15T15:37:55;7.19;86.26
75457;SHT31;64036;48.266;14.192;2022-11-15T15:40:22;7.16;86.43
75457;SHT31;64036;48.266;14.192;2022-11-15T15:42:49;7.14;86.63
75457;SHT31;64036;48.266;14.192;2022-11-15T15:45:16;7.11;86.78
75457;SHT31;64036;48.266;14.192;2022-11-15T15:47:43;7.11;86.80
75457;SHT31;64036;48.266;14.192;2022-11-15T15:50:19;7.09;86.79
75457;SHT31;64036;48.266;14.192;2022-11-15T15:53:00;7.05;86.82
75457;SHT31;64036;48.266;14.192;2022-11-15T15:55:28;7.01;86.87
75457;SHT31;64036;48.266;14.192;2022-11-15T15:57:54;7.01;86.96
75457;SHT31;64036;48.266;14.192;2022-11-15T16:00:21;7.05;86.86
75457;SHT31;64036;48.266;14.192;2022-11-15T16:02:49;7.09;86.73
75457;SHT31;64036;48.266;14.192;2022-11-15T16:05:16;7.06;86.64
75457;SHT31;64036;48.266;14.192;2022-11-15T16:07:42;7.12;86.64
75457;SHT31;64036;48.266;14.192;2022-11-15T16:12:45;7.13;86.63
75457;SHT31;64036;48.266;14.192;2022-11-15T16:15:11;7.17;86.51
75457;SHT31;64036;48.266;14.192;2022-11-15T16:17:38;7.21;86.50
75457;SHT31;64036;48.266;14.192;2022-11-15T16:20:19;7.21;86.52
75457;SHT31;64036;48.266;14.192;2022-11-15T16:22:51;7.18;86.61
75457;SHT31;64036;48.266;14.192;2022-11-15T16:25:17;7.17;86.63
75457;SHT31;64036;48.266;14.192;2022-11-15T16:27:42;7.19;86.67
75457;SHT31;64036;48.266;14.192;2022-11-15T16:30:17;7.18;86.64
75457;SHT31;64036;48.266;14.192;2022-11-15T16:32:45;7.19;86.60
75457;SHT31;64036;48.266;14.192;2022-11-15T16:35:12;7.21;86.60
75457;SHT31;64036;48.266;14.192;2022-11-15T16:37:39;7.22;86.58
75457;SHT31;64036;48.266;14.192;2022-11-15T16:40:26;7.24;86.60
75457;SHT31;64036;48.266;14.192;2022-11-15T16:42:55;7.26;86.60
75457;SHT31;64036;48.266;14.192;2022-11-15T16:45:27;7.28;86.60
75457;SHT31;64036;48.266;14.192;2022-11-15T16:47:55;7.27;86.50
75457;SHT31;64036;48.266;14.192;2022-11-15T16:50:23;7.29;86.42
75457;SHT31;64036;48.266;14.192;2022-11-15T16:52:55;7.30;86.34
75457;SHT31;64036;48.266;14.192;2022-11-15T16:55:23;7.28;86.36
75457;SHT31;64036;48.266;14.192;2022-11-15T16:57:52;7.26;86.49
75457;SHT31;64036;48.266;14.192;2022-11-15T17:00:19;7.28;86.57
75457;SHT31;64036;48.266;14.192;2022-11-15T17:02:46;7.28;86.60
75457;SHT31;64036;48.266;14.192;2022-11-15T17:05:14;7.30;86.57
75457;SHT31;64036;48.266;14.192;2022-11-15T17:07:42;7.31;86.64
75457;SHT31;64036;48.266;14.192;2022-11-15T17:10:18;7.30;86.70
75457;SHT31;64036;48.266;14.192;2022-11-15T17:12:45;7.33;86.67
75457;SHT31;64036;48.266;14.192;2022-11-15T17:15:12;7.37;86.56
75457;SHT31;64036;48.266;14.192;2022-11-15T17:17:38;7.40;86.43
75457;SHT31;64036;48.266;14.192;2022-11-15T17:20:05;7.40;86.40
75457;SHT31;64036;48.266;14.192;2022-11-15T17:22:37;7.38;86.40
75457;SHT31;64036;48.266;14.192;2022-11-15T17:25:03;7.32;86.52
75457;SHT31;64036;48.266;14.192;2022-11-15T17:27:29;7.34;86.55
75457;SHT31;64036;48.266;14.192;2022-11-15T17:29:55;7.36;86.43
75457;SHT31;64036;48.266;14.192;2022-11-15T17:32:21;7.33;86.54
75457;SHT31;64036;48.266;14.192;2022-11-15T17:34:47;7.32;86.62
75457;SHT31;64036;48.266;14.192;2022-11-15T17:37:12;7.33;86.67
75457;SHT31;64036;48.266;14.192;2022-11-15T17:39:38;7.33;86.61
75457;SHT31;64036;48.266;14.192;2022-11-15T17:42:03;7.35;86.56
75457;SHT31;64036;48.266;14.192;2022-11-15T17:44:29;7.36;86.52
75457;SHT31;64036;48.266;14.192;2022-11-15T17:46:56;7.37;86.43
75457;SHT31;64036;48.266;14.192;2022-11-15T17:49:21;7.39;86.44
75457;SHT31;64036;48.266;14.192;2022-11-15T17:51:47;7.43;86.40
75457;SHT31;64036;48.266;14.192;2022-11-15T17:54:12;7.46;86.36
75457;SHT31;64036;48.266;14.192;2022-11-15T17:56:38;7.47;86.25
75457;SHT31;64036;48.266;14.192;2022-11-15T17:59:05;7.47;86.25
75457;SHT31;64036;48.266;14.192;2022-11-15T18:01:32;7.49;86.27
75457;SHT31;64036;48.266;14.192;2022-11-15T18:04:00;7.50;86.27
75457;SHT31;64036;48.266;14.192;2022-11-15T18:06:30;7.53;86.20
75457;SHT31;64036;48.266;14.192;2022-11-15T18:08:58;7.55;86.12
75457;SHT31;64036;48.266;14.192;2022-11-15T18:11:25;7.58;86.02
75457;SHT31;64036;48.266;14.192;2022-11-15T18:13:55;7.59;85.97
75457;SHT31;64036;48.266;14.192;2022-11-15T18:16:24;7.58;85.99